LGL814P LFPG-ELLX
Flight info
| Callsign | LGL814P |
|---|---|
| Flight time | 0h 29m |
| Altitude | 19000 |
| Route | DIKOL J10 SUIPE M163 MMD |
| Aircraft | B738/M-SDGIJ1LRWY/SB1 |
Departure
| Time | 2026-05-08 12:19 |
|---|---|
| Airport | Charles de Gaulle International Airport (LFPG) |
Arrival
| Time | 2026-05-08 12:48 |
|---|---|
| Airport | Luxembourg-Findel International Airport (ELLX) |
| Time | Latitude | Longitude | Altitude | Speed | Heading |
|---|---|---|---|---|---|
| 2026-05-08 11:47 | 49.00741 | 2.57965 | 346 ft | 0 kts | 225° |
| 2026-05-08 12:05 | 49.00750 | 2.57979 | 346 ft | 2 kts | 224° |
| 2026-05-08 12:05 | 49.00761 | 2.57995 | 346 ft | 2 kts | 224° |
| 2026-05-08 12:05 | 49.00772 | 2.58011 | 345 ft | 2 kts | 225° |
| 2026-05-08 12:06 | 49.00779 | 2.58021 | 345 ft | 1 kts | 191° |
| 2026-05-08 12:06 | 49.00791 | 2.58018 | 345 ft | 2 kts | 168° |
| 2026-05-08 12:06 | 49.00804 | 2.58016 | 345 ft | 1 kts | 181° |
| 2026-05-08 12:06 | 49.00812 | 2.58022 | 345 ft | 1 kts | 245° |
| 2026-05-08 12:07 | 49.00813 | 2.58031 | 345 ft | 1 kts | 274° |
| 2026-05-08 12:07 | 49.00813 | 2.58038 | 345 ft | 0 kts | 266° |
| 2026-05-08 12:10 | 49.00813 | 2.58034 | 345 ft | 1 kts | 266° |
| 2026-05-08 12:10 | 49.00811 | 2.58011 | 345 ft | 4 kts | 265° |
| 2026-05-08 12:10 | 49.00807 | 2.57936 | 347 ft | 9 kts | 265° |
| 2026-05-08 12:11 | 49.00802 | 2.57859 | 349 ft | 6 kts | 265° |
| 2026-05-08 12:11 | 49.00798 | 2.57769 | 350 ft | 10 kts | 266° |
| 2026-05-08 12:11 | 49.00792 | 2.57673 | 351 ft | 8 kts | 265° |
| 2026-05-08 12:11 | 49.00798 | 2.57599 | 352 ft | 5 kts | 300° |
| 2026-05-08 12:12 | 49.00827 | 2.57572 | 353 ft | 4 kts | 339° |
| 2026-05-08 12:12 | 49.00871 | 2.57517 | 354 ft | 12 kts | 288° |
| 2026-05-08 12:12 | 49.00865 | 2.57337 | 357 ft | 21 kts | 265° |
| 2026-05-08 12:12 | 49.00851 | 2.57066 | 360 ft | 28 kts | 266° |
| 2026-05-08 12:13 | 49.00836 | 2.56777 | 361 ft | 27 kts | 266° |
| 2026-05-08 12:13 | 49.00819 | 2.56487 | 359 ft | 27 kts | 263° |
| 2026-05-08 12:13 | 49.00791 | 2.56197 | 354 ft | 28 kts | 262° |
| 2026-05-08 12:13 | 49.00763 | 2.55892 | 347 ft | 28 kts | 262° |
| 2026-05-08 12:14 | 49.00737 | 2.55609 | 342 ft | 25 kts | 264° |
| 2026-05-08 12:14 | 49.00720 | 2.55374 | 340 ft | 18 kts | 257° |
| 2026-05-08 12:14 | 49.00656 | 2.55247 | 338 ft | 14 kts | 191° |
| 2026-05-08 12:14 | 49.00555 | 2.55282 | 336 ft | 15 kts | 164° |
| 2026-05-08 12:15 | 49.00444 | 2.55331 | 334 ft | 20 kts | 165° |
| 2026-05-08 12:15 | 49.00281 | 2.55401 | 332 ft | 26 kts | 164° |
| 2026-05-08 12:15 | 49.00109 | 2.55476 | 331 ft | 25 kts | 164° |
| 2026-05-08 12:15 | 48.99938 | 2.55553 | 330 ft | 23 kts | 159° |
| 2026-05-08 12:16 | 48.99845 | 2.55686 | 332 ft | 15 kts | 113° |
| 2026-05-08 12:16 | 48.99802 | 2.55797 | 333 ft | 10 kts | 154° |
| 2026-05-08 12:16 | 48.99733 | 2.55811 | 333 ft | 7 kts | 176° |
| 2026-05-08 12:16 | 48.99714 | 2.55813 | 333 ft | 0 kts | 176° |
| 2026-05-08 12:17 | 48.99710 | 2.55814 | 333 ft | 2 kts | 176° |
| 2026-05-08 12:17 | 48.99662 | 2.55819 | 332 ft | 10 kts | 177° |
| 2026-05-08 12:18 | 48.99599 | 2.55832 | 332 ft | 7 kts | 127° |
| 2026-05-08 12:18 | 48.99602 | 2.55911 | 333 ft | 8 kts | 84° |
| 2026-05-08 12:18 | 48.99620 | 2.56229 | 338 ft | 69 kts | 86° |
| 2026-05-08 12:18 | 48.99682 | 2.57384 | 343 ft | 148 kts | 85° |
| 2026-05-08 12:19 | 48.99777 | 2.59167 | 784 ft | 178 kts | 85° |
| 2026-05-08 12:19 | 48.99908 | 2.60919 | 1861 ft | 167 kts | 82° |
| 2026-05-08 12:19 | 49.00045 | 2.62708 | 2476 ft | 178 kts | 84° |
| 2026-05-08 12:19 | 49.00148 | 2.64656 | 3030 ft | 195 kts | 86° |
| 2026-05-08 12:20 | 49.00239 | 2.66751 | 3675 ft | 207 kts | 86° |
| 2026-05-08 12:20 | 49.00338 | 2.68999 | 4301 ft | 222 kts | 86° |
| 2026-05-08 12:20 | 49.00452 | 2.71402 | 4902 ft | 239 kts | 86° |
| 2026-05-08 12:20 | 49.00585 | 2.74006 | 5582 ft | 254 kts | 86° |
| 2026-05-08 12:21 | 49.00726 | 2.76715 | 6282 ft | 266 kts | 86° |
| 2026-05-08 12:21 | 49.00872 | 2.79554 | 7126 ft | 272 kts | 86° |
| 2026-05-08 12:21 | 49.01018 | 2.82412 | 7952 ft | 278 kts | 86° |
| 2026-05-08 12:21 | 49.01170 | 2.85353 | 8778 ft | 283 kts | 86° |
| 2026-05-08 12:22 | 49.01325 | 2.88352 | 9632 ft | 288 kts | 86° |
| 2026-05-08 12:22 | 49.01479 | 2.91369 | 10405 ft | 293 kts | 86° |
| 2026-05-08 12:22 | 49.01647 | 2.94512 | 10932 ft | 308 kts | 85° |
| 2026-05-08 12:22 | 49.01962 | 2.97826 | 11465 ft | 323 kts | 81° |
| 2026-05-08 12:23 | 49.02391 | 3.01261 | 12001 ft | 338 kts | 79° |
| 2026-05-08 12:23 | 49.02854 | 3.04823 | 12627 ft | 349 kts | 80° |
| 2026-05-08 12:23 | 49.03311 | 3.08453 | 13444 ft | 354 kts | 80° |
| 2026-05-08 12:23 | 49.03758 | 3.12156 | 14232 ft | 359 kts | 81° |
| 2026-05-08 12:24 | 49.04198 | 3.15902 | 15042 ft | 363 kts | 81° |
| 2026-05-08 12:24 | 49.04632 | 3.19655 | 15781 ft | 369 kts | 81° |
| 2026-05-08 12:24 | 49.05074 | 3.23508 | 16545 ft | 373 kts | 81° |
| 2026-05-08 12:24 | 49.05520 | 3.27404 | 17303 ft | 378 kts | 81° |
| 2026-05-08 12:25 | 49.05977 | 3.31400 | 17905 ft | 384 kts | 81° |
| 2026-05-08 12:25 | 49.06434 | 3.35403 | 18367 ft | 387 kts | 81° |
| 2026-05-08 12:25 | 49.06894 | 3.39434 | 18630 ft | 387 kts | 81° |
| 2026-05-08 12:25 | 49.07352 | 3.43466 | 18894 ft | 388 kts | 81° |
| 2026-05-08 12:26 | 49.07811 | 3.47509 | 19038 ft | 391 kts | 81° |
| 2026-05-08 12:26 | 49.08268 | 3.51556 | 19043 ft | 390 kts | 81° |
| 2026-05-08 12:26 | 49.08730 | 3.55663 | 19045 ft | 389 kts | 81° |
| 2026-05-08 12:26 | 49.09164 | 3.59713 | 19047 ft | 389 kts | 82° |
| 2026-05-08 12:27 | 49.09580 | 3.63767 | 19045 ft | 390 kts | 82° |
| 2026-05-08 12:27 | 49.09986 | 3.67809 | 19046 ft | 389 kts | 82° |
| 2026-05-08 12:27 | 49.10399 | 3.71926 | 19050 ft | 389 kts | 82° |
| 2026-05-08 12:27 | 49.10812 | 3.76009 | 19049 ft | 389 kts | 82° |
| 2026-05-08 12:28 | 49.11227 | 3.80092 | 19050 ft | 391 kts | 82° |
| 2026-05-08 12:28 | 49.11642 | 3.84159 | 19049 ft | 391 kts | 82° |
| 2026-05-08 12:28 | 49.12059 | 3.88241 | 19053 ft | 391 kts | 82° |
| 2026-05-08 12:28 | 49.12476 | 3.92324 | 19051 ft | 391 kts | 82° |
| 2026-05-08 12:29 | 49.12894 | 3.96422 | 19053 ft | 391 kts | 82° |
| 2026-05-08 12:29 | 49.13359 | 4.00501 | 19053 ft | 391 kts | 78° |
| 2026-05-08 12:29 | 49.14131 | 4.04453 | 19057 ft | 391 kts | 68° |
| 2026-05-08 12:29 | 49.15446 | 4.08112 | 19050 ft | 392 kts | 56° |
| 2026-05-08 12:30 | 49.17056 | 4.11416 | 19049 ft | 392 kts | 52° |
| 2026-05-08 12:30 | 49.18792 | 4.14656 | 19048 ft | 392 kts | 50° |
| 2026-05-08 12:30 | 49.20531 | 4.17793 | 19047 ft | 392 kts | 50° |
| 2026-05-08 12:30 | 49.22304 | 4.20995 | 19043 ft | 392 kts | 50° |
| 2026-05-08 12:31 | 49.24013 | 4.24227 | 19042 ft | 392 kts | 53° |
| 2026-05-08 12:31 | 49.25425 | 4.27786 | 19047 ft | 392 kts | 66° |
| 2026-05-08 12:31 | 49.26358 | 4.31625 | 19045 ft | 391 kts | 73° |
| 2026-05-08 12:31 | 49.27082 | 4.35641 | 19042 ft | 391 kts | 77° |
| 2026-05-08 12:32 | 49.27718 | 4.39697 | 19040 ft | 391 kts | 78° |
| 2026-05-08 12:32 | 49.28319 | 4.43719 | 19037 ft | 391 kts | 78° |
| 2026-05-08 12:32 | 49.28923 | 4.47749 | 19033 ft | 392 kts | 78° |
| 2026-05-08 12:32 | 49.29542 | 4.51809 | 19031 ft | 391 kts | 77° |
| 2026-05-08 12:33 | 49.30170 | 4.55871 | 19030 ft | 391 kts | 77° |
| 2026-05-08 12:33 | 49.30795 | 4.59858 | 19029 ft | 388 kts | 77° |
| 2026-05-08 12:33 | 49.31420 | 4.63802 | 19026 ft | 370 kts | 77° |
| 2026-05-08 12:33 | 49.32016 | 4.67524 | 18970 ft | 355 kts | 78° |
| 2026-05-08 12:34 | 49.32596 | 4.71146 | 18710 ft | 347 kts | 78° |
| 2026-05-08 12:34 | 49.33167 | 4.74716 | 18329 ft | 343 kts | 78° |
| 2026-05-08 12:34 | 49.33730 | 4.78242 | 17919 ft | 340 kts | 78° |
| 2026-05-08 12:34 | 49.34282 | 4.81712 | 17502 ft | 337 kts | 78° |
| 2026-05-08 12:35 | 49.34837 | 4.85205 | 17091 ft | 335 kts | 78° |
| 2026-05-08 12:35 | 49.35379 | 4.88621 | 16682 ft | 332 kts | 78° |
| 2026-05-08 12:35 | 49.35918 | 4.92023 | 16273 ft | 329 kts | 78° |
| 2026-05-08 12:35 | 49.36454 | 4.95415 | 15874 ft | 327 kts | 77° |
| 2026-05-08 12:36 | 49.36988 | 4.98802 | 15464 ft | 324 kts | 77° |
| 2026-05-08 12:36 | 49.37516 | 5.02153 | 15061 ft | 322 kts | 77° |
| 2026-05-08 12:36 | 49.38033 | 5.05445 | 14664 ft | 320 kts | 77° |
| 2026-05-08 12:36 | 49.38553 | 5.08758 | 14271 ft | 317 kts | 77° |
| 2026-05-08 12:37 | 49.39064 | 5.12010 | 13881 ft | 315 kts | 77° |
| 2026-05-08 12:37 | 49.39649 | 5.15215 | 13482 ft | 313 kts | 73° |
| 2026-05-08 12:37 | 49.40337 | 5.18393 | 13090 ft | 311 kts | 71° |
| 2026-05-08 12:37 | 49.41047 | 5.21495 | 12709 ft | 309 kts | 71° |
| 2026-05-08 12:38 | 49.41758 | 5.24611 | 12325 ft | 307 kts | 71° |
| 2026-05-08 12:38 | 49.42442 | 5.27670 | 11941 ft | 305 kts | 72° |
| 2026-05-08 12:38 | 49.43116 | 5.30743 | 11557 ft | 303 kts | 72° |
| 2026-05-08 12:38 | 49.43785 | 5.33818 | 11176 ft | 301 kts | 72° |
| 2026-05-08 12:39 | 49.44436 | 5.36831 | 10799 ft | 299 kts | 72° |
| 2026-05-08 12:39 | 49.45091 | 5.39873 | 10420 ft | 297 kts | 72° |
| 2026-05-08 12:39 | 49.45732 | 5.42851 | 10043 ft | 296 kts | 72° |
| 2026-05-08 12:39 | 49.46376 | 5.45839 | 9674 ft | 295 kts | 72° |
| 2026-05-08 12:40 | 49.47019 | 5.48832 | 9299 ft | 295 kts | 72° |
| 2026-05-08 12:40 | 49.47658 | 5.51807 | 8925 ft | 294 kts | 72° |
| 2026-05-08 12:40 | 49.48298 | 5.54795 | 8550 ft | 293 kts | 72° |
| 2026-05-08 12:40 | 49.48808 | 5.57776 | 8182 ft | 291 kts | 80° |
| 2026-05-08 12:41 | 49.49095 | 5.60844 | 7954 ft | 284 kts | 84° |
| 2026-05-08 12:41 | 49.49284 | 5.63805 | 7957 ft | 278 kts | 85° |
| 2026-05-08 12:41 | 49.49459 | 5.66756 | 7727 ft | 276 kts | 85° |
| 2026-05-08 12:41 | 49.49645 | 5.69655 | 7335 ft | 268 kts | 85° |
| 2026-05-08 12:42 | 49.49834 | 5.72429 | 6940 ft | 260 kts | 85° |
| 2026-05-08 12:42 | 49.50026 | 5.75139 | 6509 ft | 253 kts | 84° |
| 2026-05-08 12:42 | 49.50216 | 5.77792 | 6088 ft | 247 kts | 84° |
| 2026-05-08 12:42 | 49.50400 | 5.80358 | 5809 ft | 238 kts | 84° |
| 2026-05-08 12:43 | 49.50580 | 5.82878 | 5626 ft | 232 kts | 84° |
| 2026-05-08 12:43 | 49.50753 | 5.85328 | 5452 ft | 231 kts | 84° |
| 2026-05-08 12:43 | 49.50914 | 5.87760 | 5279 ft | 230 kts | 85° |
| 2026-05-08 12:43 | 49.51179 | 5.90168 | 5100 ft | 229 kts | 74° |
| 2026-05-08 12:44 | 49.51810 | 5.92411 | 4940 ft | 230 kts | 62° |
| 2026-05-08 12:44 | 49.52626 | 5.94530 | 4779 ft | 232 kts | 59° |
| 2026-05-08 12:44 | 49.53468 | 5.96659 | 4435 ft | 232 kts | 60° |
| 2026-05-08 12:44 | 49.54269 | 5.98788 | 4077 ft | 228 kts | 62° |
| 2026-05-08 12:45 | 49.55025 | 6.00827 | 3786 ft | 216 kts | 62° |
| 2026-05-08 12:45 | 49.55761 | 6.02776 | 3509 ft | 206 kts | 61° |
| 2026-05-08 12:45 | 49.56472 | 6.04659 | 3230 ft | 197 kts | 61° |
| 2026-05-08 12:45 | 49.57137 | 6.06435 | 2968 ft | 190 kts | 62° |
| 2026-05-08 12:46 | 49.57760 | 6.08105 | 2726 ft | 171 kts | 60° |
| 2026-05-08 12:46 | 49.58330 | 6.09629 | 2502 ft | 159 kts | 59° |
| 2026-05-08 12:46 | 49.58857 | 6.11066 | 2336 ft | 152 kts | 60° |
| 2026-05-08 12:46 | 49.59380 | 6.12465 | 2084 ft | 150 kts | 59° |
| 2026-05-08 12:47 | 49.59931 | 6.13816 | 1875 ft | 148 kts | 56° |
| 2026-05-08 12:47 | 49.60467 | 6.15170 | 1658 ft | 148 kts | 61° |
| 2026-05-08 12:47 | 49.60946 | 6.16537 | 1462 ft | 147 kts | 64° |
| 2026-05-08 12:47 | 49.61421 | 6.17902 | 1315 ft | 140 kts | 58° |
| 2026-05-08 12:48 | 49.61925 | 6.19193 | 1182 ft | 142 kts | 63° |
| 2026-05-08 12:48 | 49.62329 | 6.20301 | 1216 ft | 91 kts | 59° |
| 2026-05-08 12:48 | 49.62563 | 6.20930 | 1230 ft | 48 kts | 56° |
| 2026-05-08 12:48 | 49.62782 | 6.21217 | 1230 ft | 36 kts | 30° |
| 2026-05-08 12:49 | 49.62918 | 6.21317 | 1229 ft | 11 kts | 343° |
| 2026-05-08 12:49 | 49.62948 | 6.21227 | 1231 ft | 9 kts | 260° |
| 2026-05-08 12:49 | 49.62924 | 6.21145 | 1232 ft | 7 kts | 243° |
| 2026-05-08 12:49 | 49.62915 | 6.21080 | 1233 ft | 5 kts | 293° |
| 2026-05-08 12:50 | 49.62944 | 6.21046 | 1233 ft | 5 kts | 330° |
| 2026-05-08 12:50 | 49.62949 | 6.21015 | 1233 ft | 2 kts | 255° |
| 2026-05-08 12:50 | 49.62942 | 6.20991 | 1233 ft | 1 kts | 248° |